sensor_id;sensor_type;location;lat;lon;timestamp;temperature;humidity
21275;DHT22;36472;52.170;20.884;2022-08-01T00:00:11;28.20;60.70
21275;DHT22;36472;52.170;20.884;2022-08-01T00:03:00;28.10;60.40
21275;DHT22;36472;52.170;20.884;2022-08-01T00:05:29;28.00;61.10
21275;DHT22;36472;52.170;20.884;2022-08-01T00:07:58;27.40;61.80
21275;DHT22;36472;52.170;20.884;2022-08-01T00:10:27;27.40;62.60
21275;DHT22;36472;52.170;20.884;2022-08-01T00:12:57;27.40;62.70
21275;DHT22;36472;52.170;20.884;2022-08-01T00:15:26;27.30;62.80
21275;DHT22;36472;52.170;20.884;2022-08-01T00:17:55;27.30;62.70
21275;DHT22;36472;52.170;20.884;2022-08-01T00:20:24;27.20;62.30
21275;DHT22;36472;52.170;20.884;2022-08-01T00:22:52;26.90;63.60
21275;DHT22;36472;52.170;20.884;2022-08-01T00:25:21;27.10;63.50
21275;DHT22;36472;52.170;20.884;2022-08-01T00:28:02;27.30;63.90
21275;DHT22;36472;52.170;20.884;2022-08-01T00:30:31;27.20;62.80
21275;DHT22;36472;52.170;20.884;2022-08-01T00:33:00;27.30;63.20
21275;DHT22;36472;52.170;20.884;2022-08-01T00:35:29;27.40;62.70
21275;DHT22;36472;52.170;20.884;2022-08-01T00:37:57;27.40;62.40
21275;DHT22;36472;52.170;20.884;2022-08-01T00:40:26;27.30;62.70
21275;DHT22;36472;52.170;20.884;2022-08-01T00:42:55;26.80;63.40
21275;DHT22;36472;52.170;20.884;2022-08-01T00:45:25;26.80;64.10
21275;DHT22;36472;52.170;20.884;2022-08-01T00:47:54;27.00;63.60
21275;DHT22;36472;52.170;20.884;2022-08-01T00:50:23;27.30;63.50
21275;DHT22;36472;52.170;20.884;2022-08-01T00:52:53;27.30;62.90
21275;DHT22;36472;52.170;20.884;2022-08-01T00:55:24;27.50;62.90
21275;DHT22;36472;52.170;20.884;2022-08-01T00:57:53;27.60;62.20
21275;DHT22;36472;52.170;20.884;2022-08-01T01:00:34;27.60;61.80
21275;DHT22;36472;52.170;20.884;2022-08-01T01:03:21;27.70;61.70
21275;DHT22;36472;52.170;20.884;2022-08-01T01:06:21;27.70;61.90
21275;DHT22;36472;52.170;20.884;2022-08-01T01:09:09;27.90;60.80
21275;DHT22;36472;52.170;20.884;2022-08-01T01:11:51;27.90;60.70
21275;DHT22;36472;52.170;20.884;2022-08-01T01:14:44;27.90;61.00
21275;DHT22;36472;52.170;20.884;2022-08-01T01:17:27;27.80;60.90
21275;DHT22;36472;52.170;20.884;2022-08-01T01:20:20;27.90;60.80
21275;DHT22;36472;52.170;20.884;2022-08-01T01:23:01;27.90;60.90
21275;DHT22;36472;52.170;20.884;2022-08-01T01:25:54;27.90;61.50
21275;DHT22;36472;52.170;20.884;2022-08-01T01:29:05;28.00;60.00
21275;DHT22;36472;52.170;20.884;2022-08-01T01:31:42;28.10;59.80
21275;DHT22;36472;52.170;20.884;2022-08-01T01:34:17;28.10;60.00
21275;DHT22;36472;52.170;20.884;2022-08-01T01:36:52;28.00;59.60
21275;DHT22;36472;52.170;20.884;2022-08-01T01:39:24;27.60;60.40
21275;DHT22;36472;52.170;20.884;2022-08-01T01:41:58;27.70;60.10
21275;DHT22;36472;52.170;20.884;2022-08-01T01:44:29;27.70;60.60
21275;DHT22;36472;52.170;20.884;2022-08-01T01:47:00;27.80;60.20
21275;DHT22;36472;52.170;20.884;2022-08-01T01:49:30;27.50;60.00
21275;DHT22;36472;52.170;20.884;2022-08-01T01:52:02;27.50;60.30
21275;DHT22;36472;52.170;20.884;2022-08-01T01:54:35;27.50;59.80
21275;DHT22;36472;52.170;20.884;2022-08-01T01:57:06;27.40;60.30
21275;DHT22;36472;52.170;20.884;2022-08-01T01:59:39;27.50;59.80
21275;DHT22;36472;52.170;20.884;2022-08-01T02:02:11;27.50;60.30
21275;DHT22;36472;52.170;20.884;2022-08-01T02:04:45;27.60;59.70
21275;DHT22;36472;52.170;20.884;2022-08-01T02:07:20;27.60;60.10
21275;DHT22;36472;52.170;20.884;2022-08-01T02:09:53;27.60;59.30
21275;DHT22;36472;52.170;20.884;2022-08-01T02:12:24;27.70;59.60
21275;DHT22;36472;52.170;20.884;2022-08-01T02:14:56;27.70;59.00
21275;DHT22;36472;52.170;20.884;2022-08-01T02:17:26;27.70;58.60
21275;DHT22;36472;52.170;20.884;2022-08-01T02:19:56;27.60;58.90
21275;DHT22;36472;52.170;20.884;2022-08-01T02:22:28;27.60;59.00
21275;DHT22;36472;52.170;20.884;2022-08-01T02:25:03;27.40;58.80
21275;DHT22;36472;52.170;20.884;2022-08-01T02:27:41;27.40;59.70
21275;DHT22;36472;52.170;20.884;2022-08-01T02:30:15;27.40;59.10
21275;DHT22;36472;52.170;20.884;2022-08-01T02:32:47;27.50;58.90
21275;DHT22;36472;52.170;20.884;2022-08-01T02:35:20;27.50;58.80
21275;DHT22;36472;52.170;20.884;2022-08-01T02:37:56;27.40;58.90
21275;DHT22;36472;52.170;20.884;2022-08-01T02:40:29;27.40;59.40
21275;DHT22;36472;52.170;20.884;2022-08-01T02:43:02;27.30;59.40
21275;DHT22;36472;52.170;20.884;2022-08-01T02:45:38;27.40;59.40
21275;DHT22;36472;52.170;20.884;2022-08-01T02:48:12;27.40;59.30
21275;DHT22;36472;52.170;20.884;2022-08-01T02:50:47;27.40;58.70
21275;DHT22;36472;52.170;20.884;2022-08-01T02:53:20;27.40;59.00
21275;DHT22;36472;52.170;20.884;2022-08-01T02:56:11;27.40;59.00
21275;DHT22;36472;52.170;20.884;2022-08-01T02:58:42;27.40;59.80
21275;DHT22;36472;52.170;20.884;2022-08-01T03:01:15;27.10;59.10
21275;DHT22;36472;52.170;20.884;2022-08-01T03:03:47;26.90;59.60
21275;DHT22;36472;52.170;20.884;2022-08-01T03:06:17;26.90;59.70
21275;DHT22;36472;52.170;20.884;2022-08-01T03:08:47;26.80;59.90
21275;DHT22;36472;52.170;20.884;2022-08-01T03:11:17;26.90;60.10
21275;DHT22;36472;52.170;20.884;2022-08-01T03:13:48;26.90;59.80
21275;DHT22;36472;52.170;20.884;2022-08-01T03:16:24;26.80;60.20
21275;DHT22;36472;52.170;20.884;2022-08-01T03:18:55;26.90;60.10
21275;DHT22;36472;52.170;20.884;2022-08-01T03:21:25;26.90;60.10
21275;DHT22;36472;52.170;20.884;2022-08-01T03:23:57;26.90;59.80
21275;DHT22;36472;52.170;20.884;2022-08-01T03:26:30;27.00;60.00
21275;DHT22;36472;52.170;20.884;2022-08-01T03:29:04;27.10;60.20
21275;DHT22;36472;52.170;20.884;2022-08-01T03:31:37;27.10;59.90
21275;DHT22;36472;52.170;20.884;2022-08-01T03:34:10;27.20;59.40
21275;DHT22;36472;52.170;20.884;2022-08-01T03:36:45;27.20;59.30
21275;DHT22;36472;52.170;20.884;2022-08-01T03:39:17;27.00;59.60
21275;DHT22;36472;52.170;20.884;2022-08-01T03:41:54;26.70;59.80
21275;DHT22;36472;52.170;20.884;2022-08-01T03:44:27;26.50;61.20
21275;DHT22;36472;52.170;20.884;2022-08-01T03:47:06;26.60;61.10
21275;DHT22;36472;52.170;20.884;2022-08-01T03:49:41;26.30;61.30
21275;DHT22;36472;52.170;20.884;2022-08-01T03:52:12;26.60;61.80
21275;DHT22;36472;52.170;20.884;2022-08-01T03:54:46;26.60;61.10
21275;DHT22;36472;52.170;20.884;2022-08-01T03:57:17;26.60;60.70
21275;DHT22;36472;52.170;20.884;2022-08-01T04:00:05;26.70;60.80
21275;DHT22;36472;52.170;20.884;2022-08-01T04:02:40;26.80;61.10
21275;DHT22;36472;52.170;20.884;2022-08-01T04:05:10;27.00;60.30
21275;DHT22;36472;52.170;20.884;2022-08-01T04:07:39;26.60;60.50
21275;DHT22;36472;52.170;20.884;2022-08-01T04:10:11;26.70;61.00
21275;DHT22;36472;52.170;20.884;2022-08-01T04:12:39;26.60;61.10
21275;DHT22;36472;52.170;20.884;2022-08-01T04:15:08;26.70;61.00
21275;DHT22;36472;52.170;20.884;2022-08-01T04:17:37;26.90;60.90
21275;DHT22;36472;52.170;20.884;2022-08-01T04:20:09;26.80;60.50
21275;DHT22;36472;52.170;20.884;2022-08-01T04:22:39;26.70;61.00
21275;DHT22;36472;52.170;20.884;2022-08-01T04:25:14;26.70;61.00
21275;DHT22;36472;52.170;20.884;2022-08-01T04:27:49;26.90;60.90
21275;DHT22;36472;52.170;20.884;2022-08-01T04:30:23;27.00;60.60
21275;DHT22;36472;52.170;20.884;2022-08-01T04:32:57;27.10;60.70
21275;DHT22;36472;52.170;20.884;2022-08-01T04:35:30;27.20;60.40
21275;DHT22;36472;52.170;20.884;2022-08-01T04:38:22;27.20;61.10
21275;DHT22;36472;52.170;20.884;2022-08-01T04:40:55;27.20;61.30
21275;DHT22;36472;52.170;20.884;2022-08-01T04:43:35;27.10;60.20
21275;DHT22;36472;52.170;20.884;2022-08-01T04:46:05;27.30;61.20
21275;DHT22;36472;52.170;20.884;2022-08-01T04:48:37;27.40;60.20
21275;DHT22;36472;52.170;20.884;2022-08-01T04:51:13;27.50;59.80
21275;DHT22;36472;52.170;20.884;2022-08-01T04:53:44;27.60;59.40
21275;DHT22;36472;52.170;20.884;2022-08-01T04:56:14;27.50;59.30
21275;DHT22;36472;52.170;20.884;2022-08-01T04:58:43;27.70;59.10
21275;DHT22;36472;52.170;20.884;2022-08-01T05:01:12;27.60;59.20
21275;DHT22;36472;52.170;20.884;2022-08-01T05:03:42;27.50;59.40
21275;DHT22;36472;52.170;20.884;2022-08-01T05:06:12;27.50;59.00
21275;DHT22;36472;52.170;20.884;2022-08-01T05:08:42;27.50;59.30
21275;DHT22;36472;52.170;20.884;2022-08-01T05:11:10;27.40;59.40
21275;DHT22;36472;52.170;20.884;2022-08-01T05:13:39;27.10;59.10
21275;DHT22;36472;52.170;20.884;2022-08-01T05:16:08;27.00;60.00
21275;DHT22;36472;52.170;20.884;2022-08-01T05:18:37;26.70;60.80
21275;DHT22;36472;52.170;20.884;2022-08-01T05:21:06;26.80;61.00
21275;DHT22;36472;52.170;20.884;2022-08-01T05:23:36;26.70;61.10
21275;DHT22;36472;52.170;20.884;2022-08-01T05:26:10;26.80;61.10
21275;DHT22;36472;52.170;20.884;2022-08-01T05:28:41;27.00;61.10
21275;DHT22;36472;52.170;20.884;2022-08-01T05:31:10;27.20;60.80
21275;DHT22;36472;52.170;20.884;2022-08-01T05:33:39;27.30;59.90
21275;DHT22;36472;52.170;20.884;2022-08-01T05:36:08;27.10;60.50
21275;DHT22;36472;52.170;20.884;2022-08-01T05:38:38;27.30;60.70
21275;DHT22;36472;52.170;20.884;2022-08-01T05:41:07;27.40;60.50
21275;DHT22;36472;52.170;20.884;2022-08-01T05:43:35;27.60;60.10
21275;DHT22;36472;52.170;20.884;2022-08-01T05:46:04;27.70;59.60
21275;DHT22;36472;52.170;20.884;2022-08-01T05:48:33;27.90;59.60
21275;DHT22;36472;52.170;20.884;2022-08-01T05:51:01;27.90;58.80
21275;DHT22;36472;52.170;20.884;2022-08-01T05:53:31;28.00;59.10
21275;DHT22;36472;52.170;20.884;2022-08-01T05:56:02;28.10;60.30
21275;DHT22;36472;52.170;20.884;2022-08-01T05:58:32;28.30;58.60
21275;DHT22;36472;52.170;20.884;2022-08-01T06:01:00;28.40;58.30
21275;DHT22;36472;52.170;20.884;2022-08-01T06:03:29;27.90;59.00
21275;DHT22;36472;52.170;20.884;2022-08-01T06:06:00;28.00;59.40
21275;DHT22;36472;52.170;20.884;2022-08-01T06:08:29;28.10;59.00
21275;DHT22;36472;52.170;20.884;2022-08-01T06:10:58;28.10;58.60
21275;DHT22;36472;52.170;20.884;2022-08-01T06:13:28;28.20;58.50
21275;DHT22;36472;52.170;20.884;2022-08-01T06:15:57;28.30;58.90
21275;DHT22;36472;52.170;20.884;2022-08-01T06:18:26;27.70;58.40
21275;DHT22;36472;52.170;20.884;2022-08-01T06:20:55;27.80;59.20
21275;DHT22;36472;52.170;20.884;2022-08-01T06:23:23;27.90;58.90
21275;DHT22;36472;52.170;20.884;2022-08-01T06:25:59;27.60;58.90
21275;DHT22;36472;52.170;20.884;2022-08-01T06:28:29;27.40;59.50
21275;DHT22;36472;52.170;20.884;2022-08-01T06:30:58;27.40;59.80
21275;DHT22;36472;52.170;20.884;2022-08-01T06:33:27;26.50;60.80
21275;DHT22;36472;52.170;20.884;2022-08-01T06:35:56;26.30;61.90
21275;DHT22;36472;52.170;20.884;2022-08-01T06:38:25;26.50;63.20
21275;DHT22;36472;52.170;20.884;2022-08-01T06:40:54;27.00;62.50
21275;DHT22;36472;52.170;20.884;2022-08-01T06:43:22;27.30;61.60
21275;DHT22;36472;52.170;20.884;2022-08-01T06:45:52;27.50;61.10
21275;DHT22;36472;52.170;20.884;2022-08-01T06:48:21;27.30;59.60
21275;DHT22;36472;52.170;20.884;2022-08-01T06:50:50;27.40;60.70
21275;DHT22;36472;52.170;20.884;2022-08-01T06:53:36;27.50;58.80
21275;DHT22;36472;52.170;20.884;2022-08-01T06:56:06;27.60;59.50
21275;DHT22;36472;52.170;20.884;2022-08-01T06:58:36;27.90;60.40
21275;DHT22;36472;52.170;20.884;2022-08-01T07:01:06;28.00;59.20
21275;DHT22;36472;52.170;20.884;2022-08-01T07:03:36;28.40;59.30
21275;DHT22;36472;52.170;20.884;2022-08-01T07:06:22;28.40;58.00
21275;DHT22;36472;52.170;20.884;2022-08-01T07:08:52;28.50;59.00
21275;DHT22;36472;52.170;20.884;2022-08-01T07:11:23;28.90;58.80
21275;DHT22;36472;52.170;20.884;2022-08-01T07:13:52;29.10;57.30
21275;DHT22;36472;52.170;20.884;2022-08-01T07:16:22;28.90;56.80
21275;DHT22;36472;52.170;20.884;2022-08-01T07:18:50;28.90;57.40
21275;DHT22;36472;52.170;20.884;2022-08-01T07:21:19;29.00;58.30
21275;DHT22;36472;52.170;20.884;2022-08-01T07:24:08;29.00;57.20
21275;DHT22;36472;52.170;20.884;2022-08-01T07:26:41;29.40;57.70
21275;DHT22;36472;52.170;20.884;2022-08-01T07:29:22;29.60;55.40
21275;DHT22;36472;52.170;20.884;2022-08-01T07:31:53;29.40;56.10
21275;DHT22;36472;52.170;20.884;2022-08-01T07:34:24;29.60;56.00
21275;DHT22;36472;52.170;20.884;2022-08-01T07:36:53;29.50;56.70
21275;DHT22;36472;52.170;20.884;2022-08-01T07:39:22;29.10;56.00
21275;DHT22;36472;52.170;20.884;2022-08-01T07:41:51;29.20;56.90
21275;DHT22;36472;52.170;20.884;2022-08-01T07:44:34;28.90;56.50
21275;DHT22;36472;52.170;20.884;2022-08-01T07:47:05;28.50;56.10
21275;DHT22;36472;52.170;20.884;2022-08-01T07:49:34;29.00;57.70
21275;DHT22;36472;52.170;20.884;2022-08-01T07:52:07;29.10;56.80
21275;DHT22;36472;52.170;20.884;2022-08-01T07:54:36;29.30;58.20
21275;DHT22;36472;52.170;20.884;2022-08-01T07:57:05;29.90;56.40
21275;DHT22;36472;52.170;20.884;2022-08-01T07:59:34;30.40;54.10
21275;DHT22;36472;52.170;20.884;2022-08-01T08:02:05;31.40;53.30
21275;DHT22;36472;52.170;20.884;2022-08-01T08:04:34;32.20;51.80
21275;DHT22;36472;52.170;20.884;2022-08-01T08:07:03;32.70;50.40
21275;DHT22;36472;52.170;20.884;2022-08-01T08:09:32;32.90;49.20
21275;DHT22;36472;52.170;20.884;2022-08-01T08:12:05;32.60;50.20
21275;DHT22;36472;52.170;20.884;2022-08-01T08:14:35;33.30;49.80
21275;DHT22;36472;52.170;20.884;2022-08-01T08:17:06;33.60;48.00
21275;DHT22;36472;52.170;20.884;2022-08-01T08:19:35;33.50;48.10
21275;DHT22;36472;52.170;20.884;2022-08-01T08:22:06;33.70;50.10
21275;DHT22;36472;52.170;20.884;2022-08-01T08:24:37;34.20;49.80
21275;DHT22;36472;52.170;20.884;2022-08-01T08:27:13;34.20;47.60
21275;DHT22;36472;52.170;20.884;2022-08-01T08:29:42;33.60;47.90
21275;DHT22;36472;52.170;20.884;2022-08-01T08:32:12;32.70;48.40
21275;DHT22;36472;52.170;20.884;2022-08-01T08:34:42;33.10;48.90
21275;DHT22;36472;52.170;20.884;2022-08-01T08:37:10;33.40;47.70
21275;DHT22;36472;52.170;20.884;2022-08-01T08:39:39;33.70;46.80
21275;DHT22;36472;52.170;20.884;2022-08-01T08:42:10;33.80;48.60
21275;DHT22;36472;52.170;20.884;2022-08-01T08:44:41;33.60;47.40
21275;DHT22;36472;52.170;20.884;2022-08-01T08:47:13;33.70;48.30
21275;DHT22;36472;52.170;20.884;2022-08-01T08:49:47;34.20;45.60
21275;DHT22;36472;52.170;20.884;2022-08-01T08:52:19;34.60;46.50
21275;DHT22;36472;52.170;20.884;2022-08-01T08:54:49;34.30;44.60
21275;DHT22;36472;52.170;20.884;2022-08-01T08:57:20;34.20;44.50
21275;DHT22;36472;52.170;20.884;2022-08-01T08:59:49;33.90;46.80
21275;DHT22;36472;52.170;20.884;2022-08-01T09:02:23;33.40;45.10
21275;DHT22;36472;52.170;20.884;2022-08-01T09:04:51;33.30;46.60
21275;DHT22;36472;52.170;20.884;2022-08-01T09:07:20;33.30;44.80
21275;DHT22;36472;52.170;20.884;2022-08-01T09:09:50;33.50;44.50
21275;DHT22;36472;52.170;20.884;2022-08-01T09:12:19;34.20;46.00
21275;DHT22;36472;52.170;20.884;2022-08-01T09:14:48;34.90;43.10
21275;DHT22;36472;52.170;20.884;2022-08-01T09:17:22;35.20;43.00
21275;DHT22;36472;52.170;20.884;2022-08-01T09:19:53;35.80;41.90
21275;DHT22;36472;52.170;20.884;2022-08-01T09:22:24;35.70;39.90
21275;DHT22;36472;52.170;20.884;2022-08-01T09:25:00;35.80;41.30
21275;DHT22;36472;52.170;20.884;2022-08-01T09:27:36;36.00;42.30
21275;DHT22;36472;52.170;20.884;2022-08-01T16:07:49;34.50;45.60
21275;DHT22;36472;52.170;20.884;2022-08-01T16:10:28;34.30;44.80
21275;DHT22;36472;52.170;20.884;2022-08-01T16:12:57;34.20;45.80
21275;DHT22;36472;52.170;20.884;2022-08-01T16:15:34;34.40;46.30
21275;DHT22;36472;52.170;20.884;2022-08-01T16:18:04;34.60;46.40
21275;DHT22;36472;52.170;20.884;2022-08-01T16:20:35;34.50;46.80
21275;DHT22;36472;52.170;20.884;2022-08-01T16:23:11;34.50;47.30
21275;DHT22;36472;52.170;20.884;2022-08-01T16:25:40;34.70;47.40
21275;DHT22;36472;52.170;20.884;2022-08-01T16:28:09;34.70;47.50
21275;DHT22;36472;52.170;20.884;2022-08-01T16:30:41;34.80;47.70
21275;DHT22;36472;52.170;20.884;2022-08-01T16:33:30;34.90;48.40
21275;DHT22;36472;52.170;20.884;2022-08-01T16:36:20;35.00;46.80
21275;DHT22;36472;52.170;20.884;2022-08-01T16:38:51;35.10;46.00
21275;DHT22;36472;52.170;20.884;2022-08-01T16:41:20;35.20;46.60
21275;DHT22;36472;52.170;20.884;2022-08-01T16:43:49;35.20;46.90
21275;DHT22;36472;52.170;20.884;2022-08-01T16:46:21;35.20;47.90
21275;DHT22;36472;52.170;20.884;2022-08-01T16:48:52;35.30;46.50
21275;DHT22;36472;52.170;20.884;2022-08-01T16:51:22;35.30;46.40
21275;DHT22;36472;52.170;20.884;2022-08-01T16:53:51;35.20;48.80
21275;DHT22;36472;52.170;20.884;2022-08-01T16:56:20;35.30;47.20
21275;DHT22;36472;52.170;20.884;2022-08-01T16:58:49;35.30;46.70
21275;DHT22;36472;52.170;20.884;2022-08-01T17:01:17;35.30;47.00
21275;DHT22;36472;52.170;20.884;2022-08-01T17:04:06;35.40;46.20
21275;DHT22;36472;52.170;20.884;2022-08-01T17:06:36;35.40;46.50
21275;DHT22;36472;52.170;20.884;2022-08-01T17:09:05;35.30;46.60
21275;DHT22;36472;52.170;20.884;2022-08-01T17:11:35;35.30;47.20
21275;DHT22;36472;52.170;20.884;2022-08-01T17:14:04;35.20;48.10
21275;DHT22;36472;52.170;20.884;2022-08-01T17:16:32;35.20;49.70
21275;DHT22;36472;52.170;20.884;2022-08-01T17:19:02;35.20;49.10
21275;DHT22;36472;52.170;20.884;2022-08-01T17:21:31;35.10;49.60
21275;DHT22;36472;52.170;20.884;2022-08-01T17:24:01;35.10;50.00
21275;DHT22;36472;52.170;20.884;2022-08-01T17:26:29;35.10;50.20
21275;DHT22;36472;52.170;20.884;2022-08-01T17:28:58;35.00;49.80
21275;DHT22;36472;52.170;20.884;2022-08-01T17:31:27;34.90;49.90
21275;DHT22;36472;52.170;20.884;2022-08-01T17:33:56;34.90;49.60
21275;DHT22;36472;52.170;20.884;2022-08-01T17:36:25;34.80;50.10
21275;DHT22;36472;52.170;20.884;2022-08-01T17:38:54;34.80;50.50
21275;DHT22;36472;52.170;20.884;2022-08-01T17:41:24;34.70;50.20
21275;DHT22;36472;52.170;20.884;2022-08-01T17:43:53;34.70;50.90
21275;DHT22;36472;52.170;20.884;2022-08-01T17:46:21;34.60;49.70
21275;DHT22;36472;52.170;20.884;2022-08-01T17:48:50;34.60;50.40
21275;DHT22;36472;52.170;20.884;2022-08-01T17:51:19;34.50;50.90
21275;DHT22;36472;52.170;20.884;2022-08-01T17:53:49;34.50;51.30
21275;DHT22;36472;52.170;20.884;2022-08-01T17:56:25;34.50;50.90
21275;DHT22;36472;52.170;20.884;2022-08-01T17:58:55;34.40;51.50
21275;DHT22;36472;52.170;20.884;2022-08-01T18:01:24;34.40;51.70
21275;DHT22;36472;52.170;20.884;2022-08-01T18:03:54;34.30;51.50
21275;DHT22;36472;52.170;20.884;2022-08-01T18:06:25;34.30;51.50
21275;DHT22;36472;52.170;20.884;2022-08-01T18:08:54;34.20;51.30
21275;DHT22;36472;52.170;20.884;2022-08-01T18:11:29;34.20;51.30
21275;DHT22;36472;52.170;20.884;2022-08-01T18:14:04;34.20;51.40
21275;DHT22;36472;52.170;20.884;2022-08-01T18:16:33;34.20;51.50
21275;DHT22;36472;52.170;20.884;2022-08-01T18:19:04;34.10;51.30
21275;DHT22;36472;52.170;20.884;2022-08-01T18:21:33;34.10;51.40
21275;DHT22;36472;52.170;20.884;2022-08-01T18:24:08;34.10;51.20
21275;DHT22;36472;52.170;20.884;2022-08-01T18:26:38;34.10;52.30
21275;DHT22;36472;52.170;20.884;2022-08-01T18:29:07;34.00;52.40
21275;DHT22;36472;52.170;20.884;2022-08-01T18:31:38;34.00;52.30
21275;DHT22;36472;52.170;20.884;2022-08-01T18:34:07;34.00;52.30
21275;DHT22;36472;52.170;20.884;2022-08-01T18:36:35;33.90;52.90
21275;DHT22;36472;52.170;20.884;2022-08-01T18:39:07;33.90;53.20
21275;DHT22;36472;52.170;20.884;2022-08-01T18:41:38;33.80;53.40
21275;DHT22;36472;52.170;20.884;2022-08-01T18:44:07;33.80;53.00
21275;DHT22;36472;52.170;20.884;2022-08-01T18:46:36;33.80;52.20
21275;DHT22;36472;52.170;20.884;2022-08-01T18:49:08;33.80;52.90
21275;DHT22;36472;52.170;20.884;2022-08-01T18:51:38;33.70;53.20
21275;DHT22;36472;52.170;20.884;2022-08-01T18:54:12;33.70;53.30
21275;DHT22;36472;52.170;20.884;2022-08-01T18:56:43;33.70;53.00
21275;DHT22;36472;52.170;20.884;2022-08-01T18:59:12;33.70;52.70
21275;DHT22;36472;52.170;20.884;2022-08-01T19:01:41;33.60;52.80
21275;DHT22;36472;52.170;20.884;2022-08-01T19:04:11;33.60;53.40
21275;DHT22;36472;52.170;20.884;2022-08-01T19:06:40;33.60;53.80
21275;DHT22;36472;52.170;20.884;2022-08-01T19:09:13;33.50;53.30
21275;DHT22;36472;52.170;20.884;2022-08-01T19:11:48;33.50;54.00
21275;DHT22;36472;52.170;20.884;2022-08-01T19:14:17;33.50;53.30
21275;DHT22;36472;52.170;20.884;2022-08-01T19:16:45;33.50;53.20
21275;DHT22;36472;52.170;20.884;2022-08-01T19:19:14;33.50;53.20
21275;DHT22;36472;52.170;20.884;2022-08-01T19:21:54;33.40;53.60
21275;DHT22;36472;52.170;20.884;2022-08-01T19:24:23;33.40;54.20
21275;DHT22;36472;52.170;20.884;2022-08-01T19:26:54;33.30;53.90
21275;DHT22;36472;52.170;20.884;2022-08-01T19:29:34;33.30;54.30
21275;DHT22;36472;52.170;20.884;2022-08-01T19:32:04;33.30;54.10
21275;DHT22;36472;52.170;20.884;2022-08-01T19:34:41;33.30;53.90
21275;DHT22;36472;52.170;20.884;2022-08-01T19:37:15;33.20;53.90
21275;DHT22;36472;52.170;20.884;2022-08-01T19:39:49;33.20;54.40
21275;DHT22;36472;52.170;20.884;2022-08-01T19:42:22;33.20;54.50
21275;DHT22;36472;52.170;20.884;2022-08-01T19:44:52;33.20;54.20
21275;DHT22;36472;52.170;20.884;2022-08-01T19:47:21;33.20;54.90
21275;DHT22;36472;52.170;20.884;2022-08-01T19:49:50;33.20;54.80
21275;DHT22;36472;52.170;20.884;2022-08-01T19:52:24;33.20;54.50
21275;DHT22;36472;52.170;20.884;2022-08-01T19:54:54;33.20;54.90
21275;DHT22;36472;52.170;20.884;2022-08-01T19:57:25;33.20;55.10
21275;DHT22;36472;52.170;20.884;2022-08-01T20:00:12;33.20;55.20
21275;DHT22;36472;52.170;20.884;2022-08-01T20:02:55;33.20;55.10
21275;DHT22;36472;52.170;20.884;2022-08-01T20:05:26;33.10;55.40
21275;DHT22;36472;52.170;20.884;2022-08-01T20:07:56;33.10;55.00
21275;DHT22;36472;52.170;20.884;2022-08-01T20:10:25;33.10;55.00
21275;DHT22;36472;52.170;20.884;2022-08-01T20:12:58;33.10;55.50
21275;DHT22;36472;52.170;20.884;2022-08-01T20:15:27;33.10;55.50
21275;DHT22;36472;52.170;20.884;2022-08-01T20:17:57;33.10;55.40
21275;DHT22;36472;52.170;20.884;2022-08-01T20:20:26;33.00;55.10
21275;DHT22;36472;52.170;20.884;2022-08-01T20:22:55;33.10;55.00
21275;DHT22;36472;52.170;20.884;2022-08-01T20:25:27;33.00;54.80
21275;DHT22;36472;52.170;20.884;2022-08-01T20:28:10;33.00;55.10
21275;DHT22;36472;52.170;20.884;2022-08-01T20:30:41;33.00;54.90
21275;DHT22;36472;52.170;20.884;2022-08-01T20:33:10;33.00;55.00
21275;DHT22;36472;52.170;20.884;2022-08-01T20:35:39;33.10;55.00
21275;DHT22;36472;52.170;20.884;2022-08-01T20:38:21;33.00;55.00
21275;DHT22;36472;52.170;20.884;2022-08-01T20:40:54;33.10;55.30
21275;DHT22;36472;52.170;20.884;2022-08-01T20:43:26;33.10;55.40
21275;DHT22;36472;52.170;20.884;2022-08-01T20:45:55;33.10;55.30
21275;DHT22;36472;52.170;20.884;2022-08-01T20:48:26;33.10;55.60
21275;DHT22;36472;52.170;20.884;2022-08-01T20:50:59;33.10;55.50
21275;DHT22;36472;52.170;20.884;2022-08-01T20:53:45;33.10;55.50
21275;DHT22;36472;52.170;20.884;2022-08-01T20:56:19;33.10;55.50
21275;DHT22;36472;52.170;20.884;2022-08-01T20:59:05;33.00;55.40
21275;DHT22;36472;52.170;20.884;2022-08-01T21:02:02;33.00;55.40
21275;DHT22;36472;52.170;20.884;2022-08-01T21:04:44;33.00;55.30
21275;DHT22;36472;52.170;20.884;2022-08-01T21:07:25;33.00;55.40
21275;DHT22;36472;52.170;20.884;2022-08-01T21:10:02;32.90;55.60
21275;DHT22;36472;52.170;20.884;2022-08-01T21:12:41;32.90;55.50
21275;DHT22;36472;52.170;20.884;2022-08-01T21:15:22;32.90;55.40
21275;DHT22;36472;52.170;20.884;2022-08-01T21:18:00;32.90;55.50
21275;DHT22;36472;52.170;20.884;2022-08-01T21:20:34;32.90;55.60
21275;DHT22;36472;52.170;20.884;2022-08-01T21:23:18;32.90;55.50
21275;DHT22;36472;52.170;20.884;2022-08-01T21:25:56;32.90;56.60
21275;DHT22;36472;52.170;20.884;2022-08-01T21:28:26;32.80;55.60
21275;DHT22;36472;52.170;20.884;2022-08-01T21:30:57;32.80;55.80
21275;DHT22;36472;52.170;20.884;2022-08-01T21:33:27;32.80;55.80
21275;DHT22;36472;52.170;20.884;2022-08-01T21:35:58;32.80;55.80
21275;DHT22;36472;52.170;20.884;2022-08-01T21:38:34;32.80;55.80
21275;DHT22;36472;52.170;20.884;2022-08-01T21:41:07;32.80;55.80
21275;DHT22;36472;52.170;20.884;2022-08-01T21:43:36;32.80;55.70
21275;DHT22;36472;52.170;20.884;2022-08-01T21:46:08;32.80;56.10
21275;DHT22;36472;52.170;20.884;2022-08-01T21:48:38;32.70;56.10
21275;DHT22;36472;52.170;20.884;2022-08-01T21:51:19;32.70;56.10
21275;DHT22;36472;52.170;20.884;2022-08-01T21:54:01;32.70;56.00
21275;DHT22;36472;52.170;20.884;2022-08-01T21:56:45;32.70;56.10
21275;DHT22;36472;52.170;20.884;2022-08-01T21:59:25;32.70;56.40
21275;DHT22;36472;52.170;20.884;2022-08-01T22:02:03;32.70;56.30
21275;DHT22;36472;52.170;20.884;2022-08-01T22:04:41;32.70;56.40
21275;DHT22;36472;52.170;20.884;2022-08-01T22:07:16;32.70;56.40
21275;DHT22;36472;52.170;20.884;2022-08-01T22:09:48;32.60;56.10
21275;DHT22;36472;52.170;20.884;2022-08-01T22:12:18;32.60;56.20
21275;DHT22;36472;52.170;20.884;2022-08-01T22:14:52;32.60;56.40
21275;DHT22;36472;52.170;20.884;2022-08-01T22:17:23;32.60;56.40
21275;DHT22;36472;52.170;20.884;2022-08-01T22:19:52;32.60;56.50
21275;DHT22;36472;52.170;20.884;2022-08-01T22:22:23;32.60;56.80
21275;DHT22;36472;52.170;20.884;2022-08-01T22:25:14;32.60;57.00